createdAt,value
2022-11-12T00:02:49.934Z,5.28
2022-11-12T00:06:12.435Z,5.26
2022-11-12T00:09:33.806Z,5.24
2022-11-12T00:12:55.139Z,5.20
2022-11-12T00:16:16.895Z,5.20
2022-11-12T00:19:38.739Z,5.17
2022-11-12T00:23:02.116Z,5.17
2022-11-12T00:26:24.061Z,5.10
2022-11-12T00:29:46.304Z,5.12
2022-11-12T00:33:08.800Z,5.11
2022-11-12T00:36:30.593Z,5.11
2022-11-12T00:39:53.456Z,5.09
2022-11-12T00:43:14.898Z,5.01
2022-11-12T00:46:36.492Z,5.05
2022-11-12T00:49:58.078Z,5.05
2022-11-12T00:53:19.973Z,5.03
2022-11-12T00:56:43.074Z,5.11
2022-11-12T01:00:07.097Z,5.07
2022-11-12T01:03:29.439Z,5.00
2022-11-12T01:06:50.746Z,4.99
2022-11-12T01:10:13.668Z,5.00
2022-11-12T01:13:41.351Z,5.01
2022-11-12T01:17:05.943Z,5.01
2022-11-12T01:20:27.885Z,4.95
2022-11-12T01:23:49.674Z,4.90
2022-11-12T01:27:11.441Z,4.90
2022-11-12T01:30:37.395Z,4.91
2022-11-12T01:34:01.615Z,4.91
2022-11-12T01:37:23.474Z,4.90
2022-11-12T01:40:45.082Z,4.90
2022-11-12T01:44:17.633Z,4.94
2022-11-12T01:47:40.524Z,4.88
2022-11-12T01:51:04.919Z,4.83
2022-11-12T01:54:27.797Z,4.81
2022-11-12T01:57:54.005Z,4.78
2022-11-12T02:01:15.790Z,4.77
2022-11-12T02:04:41.312Z,4.76
2022-11-12T02:08:05.694Z,4.74
2022-11-12T02:11:27.301Z,4.70
2022-11-12T02:14:47.963Z,4.66
2022-11-12T02:18:10.273Z,4.73
2022-11-12T02:21:34.226Z,4.68
2022-11-12T02:24:58.102Z,4.67
2022-11-12T02:28:19.685Z,4.67
2022-11-12T02:31:43.647Z,4.60
2022-11-12T02:35:06.293Z,4.55
2022-11-12T02:38:29.378Z,4.59
2022-11-12T02:41:50.902Z,4.58
2022-11-12T02:45:13.525Z,4.56
2022-11-12T02:48:35.357Z,4.54
2022-11-12T02:51:57.784Z,4.50
2022-11-12T02:55:20.627Z,4.42
2022-11-12T02:58:42.152Z,4.36
2022-11-12T03:02:03.785Z,4.37
2022-11-12T03:05:26.531Z,4.30
2022-11-12T03:08:48.221Z,4.32
2022-11-12T03:12:11.079Z,4.25
2022-11-12T03:15:33.012Z,4.26
2022-11-12T03:18:55.087Z,4.27
2022-11-12T03:22:16.663Z,4.31
2022-11-12T03:25:39.399Z,4.23
2022-11-12T03:29:02.148Z,4.22
2022-11-12T03:32:23.802Z,4.23
2022-11-12T03:35:45.860Z,4.27
2022-11-12T03:39:07.451Z,4.24
2022-11-12T03:42:29.041Z,4.22
2022-11-12T03:45:51.823Z,4.17
2022-11-12T03:49:13.182Z,4.22
2022-11-12T03:52:35.282Z,4.10
2022-11-12T03:55:57.102Z,4.09
2022-11-12T03:59:21.200Z,4.06
2022-11-12T04:02:44.696Z,4.08
2022-11-12T04:06:25.095Z,4.03
2022-11-12T04:09:46.634Z,4.01
2022-11-12T04:13:25.907Z,3.97
2022-11-12T04:17:05.273Z,3.91
2022-11-12T04:20:45.928Z,3.91
2022-11-12T04:24:08.043Z,3.90
2022-11-12T04:27:31.363Z,3.87
2022-11-12T04:30:53.182Z,3.88
2022-11-12T04:34:29.904Z,3.84
2022-11-12T04:37:53.566Z,3.82
2022-11-12T04:41:33.536Z,3.75
2022-11-12T04:45:02.627Z,3.75
2022-11-12T04:48:26.414Z,3.76
2022-11-12T04:52:06.769Z,3.74
2022-11-12T04:55:29.395Z,3.68
2022-11-12T04:58:50.698Z,3.67
2022-11-12T05:02:12.247Z,3.66
2022-11-12T05:05:34.310Z,3.66
2022-11-12T05:08:56.512Z,3.64
2022-11-12T05:12:19.727Z,3.62
2022-11-12T05:15:41.300Z,3.64
2022-11-12T05:19:02.915Z,3.56
2022-11-12T05:22:42.834Z,3.56
2022-11-12T05:26:06.981Z,3.59
2022-11-12T05:29:29.563Z,3.56
2022-11-12T05:32:51.008Z,3.55
2022-11-12T05:36:12.529Z,3.52
2022-11-12T05:39:33.976Z,3.48
2022-11-12T05:42:55.543Z,3.46
2022-11-12T05:46:18.234Z,3.44
2022-11-12T05:49:40.021Z,3.43
2022-11-12T05:53:01.339Z,3.36
2022-11-12T05:56:22.870Z,3.39
2022-11-12T05:59:44.609Z,3.38
2022-11-12T06:03:07.550Z,3.40
2022-11-12T06:06:29.401Z,3.41
2022-11-12T06:09:50.871Z,3.35
2022-11-12T06:13:12.843Z,3.35
2022-11-12T06:16:34.485Z,3.24
2022-11-12T06:19:57.587Z,3.26
2022-11-12T06:23:19.122Z,3.31
2022-11-12T06:26:40.617Z,3.28
2022-11-12T06:30:01.955Z,3.31
2022-11-12T06:33:23.806Z,3.29
2022-11-12T06:36:48.699Z,3.31
2022-11-12T06:40:10.813Z,3.32
2022-11-12T06:43:34.464Z,3.31
2022-11-12T06:46:55.920Z,3.35
2022-11-12T06:50:17.894Z,3.36
2022-11-12T06:53:40.866Z,3.42
2022-11-12T06:57:02.239Z,3.46
2022-11-12T07:00:24.206Z,3.46
2022-11-12T07:03:45.954Z,3.50
2022-11-12T07:07:10.610Z,3.52
2022-11-12T07:10:34.408Z,3.53
2022-11-12T07:13:56.028Z,3.62
2022-11-12T07:17:17.747Z,3.68
2022-11-12T07:20:39.492Z,3.74
2022-11-12T07:24:00.950Z,3.82
2022-11-12T07:27:23.713Z,3.88
2022-11-12T07:30:45.506Z,4.01
2022-11-12T07:34:07.076Z,4.16
2022-11-12T07:37:28.662Z,4.43
2022-11-12T07:40:51.007Z,4.56
2022-11-12T07:44:14.329Z,4.71
2022-11-12T07:47:35.722Z,4.91
2022-11-12T07:51:02.682Z,5.03
2022-11-12T07:54:24.464Z,5.13
2022-11-12T07:57:46.164Z,5.36
2022-11-12T08:01:20.799Z,5.46
2022-11-12T08:04:42.869Z,5.56
2022-11-12T08:08:04.692Z,5.73
2022-11-12T08:11:26.721Z,5.87
2022-11-12T08:14:48.366Z,5.97
2022-11-12T08:18:11.185Z,6.04
2022-11-12T08:21:32.803Z,6.10
2022-11-12T08:24:54.384Z,6.14
2022-11-12T08:28:15.910Z,6.25
2022-11-12T08:31:38.142Z,6.32
2022-11-12T08:35:00.986Z,6.29
2022-11-12T08:38:22.310Z,6.33
2022-11-12T08:41:43.873Z,6.36
2022-11-12T08:45:06.700Z,6.37
2022-11-12T08:48:30.679Z,6.48
2022-11-12T08:51:53.577Z,6.54
2022-11-12T08:55:15.478Z,6.54
2022-11-12T08:58:37.185Z,6.56
2022-11-12T09:01:58.800Z,6.64
2022-11-12T09:05:20.601Z,6.75
2022-11-12T09:08:44.369Z,6.93
2022-11-12T09:12:15.053Z,6.92
2022-11-12T09:15:39.701Z,7.16
2022-11-12T09:19:01.034Z,7.28
2022-11-12T09:22:22.411Z,7.35
2022-11-12T09:25:45.611Z,7.48
2022-11-12T09:29:07.287Z,7.67
2022-11-12T09:32:28.672Z,7.80
2022-11-12T09:35:51.352Z,7.93
2022-11-12T09:39:12.771Z,8.08
2022-11-12T09:42:37.638Z,8.34
2022-11-12T09:46:27.373Z,8.61
2022-11-12T09:49:57.056Z,8.79
2022-11-12T09:53:24.162Z,8.86
2022-11-12T09:56:45.885Z,9.02
2022-11-12T10:00:17.862Z,9.19
2022-11-12T10:03:47.675Z,9.28
2022-11-12T10:07:21.103Z,9.47
2022-11-12T10:10:48.211Z,9.63
2022-11-12T10:14:20.278Z,9.73
2022-11-12T10:17:51.804Z,9.78
2022-11-12T10:21:23.845Z,9.97
2022-11-12T10:24:46.596Z,9.98
2022-11-12T10:28:20.909Z,10.12
2022-11-12T10:31:42.359Z,10.28
2022-11-12T10:35:05.748Z,10.27
2022-11-12T10:38:29.883Z,10.57
2022-11-12T10:42:06.054Z,10.68
2022-11-12T10:45:28.146Z,10.92
2022-11-12T10:48:58.304Z,11.29
2022-11-12T10:52:25.777Z,11.47
2022-11-12T10:56:00.201Z,11.63
2022-11-12T10:59:23.199Z,11.91
2022-11-12T11:02:50.829Z,12.16
2022-11-12T11:06:23.291Z,12.04
2022-11-12T11:09:56.419Z,12.36
2022-11-12T11:13:22.228Z,12.52
2022-11-12T11:16:52.399Z,12.75
2022-11-12T11:20:49.876Z,12.83
2022-11-12T11:24:39.999Z,13.10
2022-11-12T11:28:16.219Z,12.98
2022-11-12T11:31:48.535Z,13.11
2022-11-12T11:35:26.119Z,13.32
2022-11-12T11:39:00.413Z,13.60
2022-11-12T11:42:47.749Z,13.70
2022-11-12T11:46:27.573Z,14.04
2022-11-12T11:50:10.908Z,14.15
2022-11-12T11:53:42.475Z,14.05
2022-11-12T11:57:13.712Z,14.27
2022-11-12T12:00:46.564Z,14.63
2022-11-12T12:04:33.770Z,14.70
2022-11-12T12:08:03.600Z,14.89
2022-11-12T12:11:32.518Z,14.80
2022-11-12T12:15:23.325Z,14.82
2022-11-12T12:18:53.528Z,14.46
2022-11-12T12:22:35.884Z,14.66
2022-11-12T12:26:04.403Z,14.84
2022-11-12T12:29:34.897Z,14.54
2022-11-12T12:33:01.322Z,14.72
2022-11-12T12:36:36.407Z,14.49
2022-11-12T12:40:10.021Z,14.20
2022-11-12T12:43:40.967Z,14.47
2022-11-12T12:47:03.789Z,14.53
2022-11-12T12:50:28.665Z,14.50
2022-11-12T12:53:50.435Z,14.60
2022-11-12T12:57:33.762Z,14.39
2022-11-12T13:01:05.551Z,14.55
2022-11-12T13:04:57.013Z,14.20
2022-11-12T13:08:27.276Z,14.33
2022-11-12T13:12:11.860Z,14.41
2022-11-12T13:15:46.085Z,14.62
2022-11-12T13:19:08.913Z,14.53
2022-11-12T13:22:51.687Z,14.78
2022-11-12T13:26:49.503Z,14.68
2022-11-12T13:30:50.362Z,14.81
2022-11-12T13:34:22.741Z,14.50
2022-11-12T13:37:45.708Z,14.62
2022-11-12T13:41:16.829Z,14.74
2022-11-12T13:44:38.315Z,14.58
2022-11-12T13:48:00.350Z,14.42
2022-11-12T13:51:37.599Z,14.28
2022-11-12T13:55:03.310Z,14.21
2022-11-12T13:58:30.392Z,13.70
2022-11-12T14:01:52.785Z,13.62
2022-11-12T14:05:17.822Z,13.49
2022-11-12T14:09:26.543Z,13.32
2022-11-12T14:13:07.008Z,13.18
2022-11-12T14:16:41.880Z,12.99
2022-11-12T14:20:32.821Z,12.81
2022-11-12T14:24:05.751Z,12.50
2022-11-12T14:27:37.510Z,12.48
2022-11-12T14:31:03.335Z,12.41
2022-11-12T14:34:30.400Z,12.30
2022-11-12T14:37:55.929Z,12.13
2022-11-12T14:41:22.315Z,11.95
2022-11-12T14:44:47.450Z,11.92
2022-11-12T14:48:10.777Z,11.70
2022-11-12T14:51:40.098Z,11.55
2022-11-12T14:55:17.022Z,11.49
2022-11-12T14:58:40.996Z,11.37
2022-11-12T15:02:30.451Z,11.09
2022-11-12T15:06:01.161Z,11.04
2022-11-12T15:09:36.237Z,10.91
2022-11-12T15:13:04.600Z,10.74
2022-11-12T15:16:29.717Z,10.57
2022-11-12T15:19:52.662Z,10.41
2022-11-12T15:23:19.587Z,10.26
2022-11-12T15:26:43.835Z,10.17
2022-11-12T15:30:23.531Z,10.12
2022-11-12T15:33:45.158Z,10.08
2022-11-12T15:37:11.871Z,10.00
2022-11-12T15:40:34.384Z,10.01
2022-11-12T15:43:56.196Z,9.85
2022-11-12T15:47:22.501Z,9.69
2022-11-12T15:50:44.538Z,9.60
2022-11-12T15:54:07.508Z,9.52
2022-11-12T15:57:32.487Z,9.39
2022-11-12T16:00:56.636Z,9.36
2022-11-12T16:04:18.905Z,9.31
2022-11-12T16:07:40.973Z,9.17
2022-11-12T16:11:24.263Z,9.07
2022-11-12T16:14:46.336Z,9.07
2022-11-12T16:18:12.105Z,8.92
2022-11-12T16:21:34.543Z,8.82
2022-11-12T16:24:55.964Z,8.74
2022-11-12T16:28:20.153Z,8.67
2022-11-12T16:31:43.823Z,8.57
2022-11-12T16:35:06.267Z,8.42
2022-11-12T16:38:27.728Z,8.39
2022-11-12T16:41:49.294Z,8.36
2022-11-12T16:45:13.299Z,8.33
2022-11-12T16:48:39.058Z,8.30
2022-11-12T16:52:00.858Z,8.22
2022-11-12T16:55:23.063Z,8.14
2022-11-12T16:58:44.729Z,8.04
2022-11-12T17:02:15.079Z,7.91
2022-11-12T17:05:36.798Z,7.87
2022-11-12T17:08:58.160Z,7.86
2022-11-12T17:12:19.958Z,7.88
2022-11-12T17:15:41.467Z,7.77
2022-11-12T17:19:05.412Z,7.77
2022-11-12T17:22:27.552Z,7.71
2022-11-12T17:25:49.193Z,7.59
2022-11-12T17:29:10.756Z,7.59
2022-11-12T17:32:33.558Z,7.53
2022-11-12T17:36:01.761Z,7.49
2022-11-12T17:39:23.720Z,7.46
2022-11-12T17:42:46.563Z,7.43
2022-11-12T17:46:10.734Z,7.38
2022-11-12T17:49:33.054Z,7.34
2022-11-12T17:52:55.853Z,7.33
2022-11-12T17:56:19.759Z,7.27
2022-11-12T17:59:41.827Z,7.24
2022-11-12T18:03:03.911Z,7.21
2022-11-12T18:06:27.974Z,7.16
2022-11-12T18:09:50.722Z,7.13
2022-11-12T18:13:13.052Z,7.09
2022-11-12T18:16:34.719Z,7.01
2022-11-12T18:19:56.301Z,6.99
2022-11-12T18:23:17.859Z,6.97
2022-11-12T18:26:40.793Z,6.98
2022-11-12T18:30:02.312Z,7.00
2022-11-12T18:33:23.995Z,6.94
2022-11-12T18:36:45.333Z,6.85
2022-11-12T18:40:08.257Z,6.79
2022-11-12T18:43:31.956Z,6.76
2022-11-12T18:46:53.960Z,6.73
2022-11-12T18:50:16.109Z,6.72
2022-11-12T18:53:39.464Z,6.77
2022-11-12T18:57:01.284Z,6.78
2022-11-12T19:00:24.655Z,6.80
2022-11-12T19:03:46.089Z,6.85
2022-11-12T19:07:07.730Z,6.86
2022-11-12T19:10:29.320Z,6.97
2022-11-12T19:13:52.402Z,7.05
2022-11-12T19:17:15.638Z,7.16
2022-11-12T19:20:37.386Z,7.26
2022-11-12T19:24:00.349Z,7.37
2022-11-12T19:27:25.782Z,7.45
2022-11-12T19:30:47.535Z,7.50
2022-11-12T19:34:10.681Z,7.57
2022-11-12T19:37:34.109Z,7.66
2022-11-12T19:40:56.502Z,7.71
2022-11-12T19:44:17.888Z,7.75
2022-11-12T19:47:39.365Z,7.79
2022-11-12T19:51:04.467Z,7.87
2022-11-12T19:54:26.012Z,7.92
2022-11-12T19:57:47.502Z,8.02
2022-11-12T20:01:11.713Z,8.07
2022-11-12T20:04:33.284Z,8.14
2022-11-12T20:07:56.013Z,8.11
2022-11-12T20:11:18.894Z,8.10
2022-11-12T20:14:41.486Z,8.06
2022-11-12T20:18:02.861Z,8.08
2022-11-12T20:21:24.241Z,8.10
2022-11-12T20:24:47.233Z,8.11
2022-11-12T20:28:08.800Z,8.15
2022-11-12T20:31:30.733Z,8.15
2022-11-12T20:34:52.414Z,8.21
2022-11-12T20:38:14.006Z,8.20
2022-11-12T20:41:37.558Z,8.18
2022-11-12T20:44:59.222Z,8.17
2022-11-12T20:48:22.289Z,8.21
2022-11-12T20:51:44.055Z,8.25
2022-11-12T20:55:06.591Z,8.23
2022-11-12T20:58:30.809Z,8.24
2022-11-12T21:01:57.464Z,8.18
2022-11-12T21:05:19.641Z,8.24
2022-11-12T21:08:41.905Z,8.22
2022-11-12T21:12:03.874Z,8.26
2022-11-12T21:15:26.716Z,8.34
2022-11-12T21:18:48.271Z,8.36
2022-11-12T21:22:09.988Z,8.40
2022-11-12T21:25:31.553Z,8.38
2022-11-12T21:28:55.545Z,8.45
2022-11-12T21:32:18.576Z,8.48
2022-11-12T21:35:43.043Z,8.53
2022-11-12T21:39:05.529Z,8.55
2022-11-12T21:42:27.276Z,8.53
2022-11-12T21:45:49.369Z,8.55
2022-11-12T21:49:12.172Z,8.61
2022-11-12T21:52:33.476Z,8.64
2022-11-12T21:55:55.121Z,8.64
2022-11-12T21:59:16.528Z,8.64
2022-11-12T22:02:38.127Z,8.70
2022-11-12T22:06:01.670Z,8.69
2022-11-12T22:09:23.562Z,8.73
2022-11-12T22:13:04.846Z,8.76
2022-11-12T22:16:29.843Z,8.76
2022-11-12T22:19:51.673Z,8.77
2022-11-12T22:23:14.817Z,8.71
2022-11-12T22:26:36.588Z,8.77
2022-11-12T22:29:58.156Z,8.81
2022-11-12T22:33:19.562Z,8.79
2022-11-12T22:36:41.398Z,8.83
2022-11-12T22:40:09.154Z,8.86
2022-11-12T22:43:33.985Z,8.88
2022-11-12T22:46:55.643Z,8.90
2022-11-12T22:50:17.176Z,8.92
2022-11-12T22:53:38.798Z,8.85
2022-11-12T22:57:01.550Z,8.86
2022-11-12T23:00:31.662Z,8.93
2022-11-12T23:03:56.802Z,8.91
2022-11-12T23:07:18.406Z,8.95
2022-11-12T23:10:45.457Z,8.94
2022-11-12T23:14:08.629Z,8.96
2022-11-12T23:17:30.095Z,9.01
2022-11-12T23:20:51.579Z,9.05
2022-11-12T23:24:14.252Z,9.02
2022-11-12T23:27:36.616Z,9.02
2022-11-12T23:30:59.687Z,9.03
2022-11-12T23:34:21.416Z,9.03
2022-11-12T23:37:43.620Z,9.08
2022-11-12T23:41:06.119Z,9.06
2022-11-12T23:44:27.714Z,9.07
2022-11-12T23:47:50.890Z,9.06
2022-11-12T23:51:18.997Z,9.07
2022-11-12T23:54:40.783Z,9.10
2022-11-12T23:58:05.701Z,9.16
